Latest Weather Observations for Coldstream

IDV60801

Issued at 9:31 am EDT Saturday 20 December 2014 (issued every 30 minutes, with the page automatically refreshed every 10 minutes)

About weather observations | Map of weather stations | Latest weather observations for VIC | Other Formats
Station Details ID: 086383 Name: COLDSTREAM Lat: -37.72 Lon: 145.41 Height: 83.0 m
Data from the previous 72 hours. | See also: Recent months at Coldstream
Date/Time
EDT
Temp
°C
App
Temp
°C
Dew
Point
Rel
Hum
%
Delta-T
°C
Wind Press
QNH
hPa
Press
MSL
hPa
Rain
since 9 am
mm
Dir
 
Spd
km/h
Gust
km/h
Spd
kts
Gust
kts
20/09:30am 15.3 14.3 10.3 72 2.6 NW 6 9 3 5 1019.6 1019.4 0.0
20/09:00am 15.8 15.8 9.9 68 3.1 CALM 0 6 0 3 1019.5 1019.3 0.0
20/08:30am 13.5 13.1 9.7 78 2.0 NNW 2 6 1 3 1019.2 1019.0 0.0
20/08:00am 12.2 12.0 9.2 82 1.5 CALM 0 0 0 0 1018.9 1018.7 0.0
20/07:30am 11.2 11.1 9.5 89 0.9 CALM 0 0 0 0 1018.6 1018.4 0.0
20/07:00am 9.4 9.2 9.1 98 0.1 CALM 0 0 0 0 1018.5 1018.3 0.0
20/06:30am 7.7 7.1 7.4 98 0.1 CALM 0 0 0 0 1018.3 1018.1 0.0
20/06:00am 7.5 6.9 7.2 98 0.1 CALM 0 0 0 0 1018.3 1018.1 0.0
20/05:30am 8.1 7.6 7.8 98 0.1 CALM 0 0 0 0 1018.2 1018.0 0.0
20/05:00am 7.7 7.1 7.4 98 0.1 CALM 0 0 0 0 1018.3 1018.1 0.0
20/04:30am 6.7 5.8 6.0 95 0.3 CALM 0 0 0 0 1018.1 1017.9 0.0
20/04:00am 7.5 6.8 6.8 95 0.3 CALM 0 0 0 0 1018.0 1017.8 0.0
20/03:30am 8.8 8.4 8.4 97 0.2 CALM 0 0 0 0 1018.1 1017.9 0.0
20/03:00am 8.7 8.3 8.4 98 0.1 CALM 0 0 0 0 1018.3 1018.1 0.0
20/02:30am 7.9 6.9 7.5 97 0.2 SE 2 6 1 3 1018.5 1018.3 0.0
20/02:00am 7.2 6.4 6.6 96 0.3 CALM 0 0 0 0 1018.7 1018.5 0.0
20/01:30am 7.3 6.5 6.7 96 0.3 CALM 0 0 0 0 1019.0 1018.8 0.0
20/01:00am 6.9 5.6 6.0 94 0.4 SSW 2 6 1 3 1019.2 1019.0 0.0
20/12:30am 7.4 6.5 6.0 91 0.6 CALM 0 0 0 0 1019.5 1019.3 0.0
20/12:00am 8.0 6.8 6.6 91 0.6 S 2 7 1 4 1019.7 1019.5 0.0
 
Date/Time
EDT
Temp
°C
App
Temp
°C
Dew
Point
Rel
Hum
%
Delta-T
°C
Wind Press
QNH
hPa
Press
MSL
hPa
Rain
since 9 am
mm
Dir
 
Spd
km/h
Gust
km/h
Spd
kts
Gust
kts
19/11:30pm 8.6 7.3 6.1 84 1.1 SSE 2 7 1 4 1020.0 1019.8 0.0
19/11:00pm 10.4 8.4 7.1 80 1.6 S 7 9 4 5 1020.1 1020.0 0.0
19/10:30pm 11.0 9.2 7.1 77 1.9 SSE 6 9 3 5 1020.0 1019.8 0.0
19/10:00pm 11.9 9.5 6.8 71 2.4 SSE 9 11 5 6 1019.8 1019.6 0.0
19/09:30pm 13.0 10.6 6.8 66 3.0 SSE 9 13 5 7 1019.7 1019.5 0.0
19/09:00pm 14.2 11.2 7.5 64 3.3 SSE 13 20 7 11 1019.6 1019.4 0.0
19/08:30pm 14.9 11.9 7.7 62 3.6 SSE 13 20 7 11 1019.6 1019.4 0.0
19/08:00pm 16.1 12.4 8.1 59 4.0 S 17 26 9 14 1019.1 1018.9 0.0
19/07:30pm 17.7 14.5 8.3 54 4.8 SSE 15 24 8 13 1018.5 1018.3 0.0
19/07:00pm 18.7 15.8 8.1 50 5.5 S 13 20 7 11 1017.9 1017.7 0.0
19/06:30pm 19.6 15.7 7.0 44 6.4 SSW 17 32 9 17 1017.7 1017.5 0.0
19/06:00pm 20.0 17.1 6.7 42 6.7 SSW 11 19 6 10 1017.3 1017.1 0.0
19/05:30pm 20.2 16.3 7.2 43 6.6 SW 17 24 9 13 1017.3 1017.1 0.0
19/05:00pm 20.2 16.2 6.5 41 6.9 WSW 17 33 9 18 1017.3 1017.1 0.0
19/04:30pm 20.0 15.6 6.4 41 6.8 SW 19 33 10 18 1017.3 1017.1 0.0
19/04:00pm 19.8 15.9 5.5 39 7.0 S 15 32 8 17 1017.3 1017.1 0.0
19/03:30pm 19.9 15.9 6.6 42 6.7 SW 17 28 9 15 1017.3 1017.1 0.0
19/03:00pm 19.1 15.2 6.9 45 6.1 SSW 17 28 9 15 1017.3 1017.1 0.0
19/02:30pm 19.6 15.8 7.4 45 6.2 SSW 17 24 9 13 1017.4 1017.2 0.0
19/02:00pm 19.0 15.1 7.1 46 6.0 WSW 17 26 9 14 1017.3 1017.1 0.0
19/01:30pm 18.7 14.3 6.5 45 6.1 WSW 19 28 10 15 1017.5 1017.3 0.0
19/01:00pm 17.6 12.9 7.9 53 4.9 WSW 22 33 12 18 1017.7 1017.5 0.0
19/12:30pm 16.2 12.5 7.9 58 4.2 WSW 17 24 9 13 1017.6 1017.4 0.0
19/12:00pm 16.2 13.6 7.9 58 4.2 S 11 19 6 10 1017.5 1017.3 0.0
19/11:30am 15.3 12.8 8.1 62 3.6 SW 11 17 6 9 1017.6 1017.4 0.0
19/11:00am 15.4 13.6 9.3 67 3.1 SSW 9 17 5 9 1017.5 1017.3 0.0
19/10:30am 14.1 12.6 10.7 80 1.8 NNE 9 13 5 7 1017.3 1017.1 0.0
19/10:00am 13.6 12.4 9.5 76 2.1 ENE 6 9 3 5 1017.0 1016.8 0.0
19/09:30am 13.0 11.9 9.8 81 1.6 ESE 6 7 3 4 1016.9 1016.7 0.0
19/09:00am 12.5 11.4 9.9 84 1.3 ENE 6 9 3 5 1016.7 1016.5 3.2
19/08:30am 12.1 11.4 10.2 88 1.0 N 4 9 2 5 1016.6 1016.4 3.2
19/08:00am 11.2 11.1 9.6 90 0.8 CALM 0 0 0 0 1016.4 1016.2 3.2
19/07:30am 9.8 9.8 9.7 99 0.1 CALM 0 4 0 2 1016.1 1015.9 3.2
19/07:00am 9.2 8.6 9.1 99 0.0 NW 2 6 1 3 1015.7 1015.5 3.2
19/06:30am 7.8 7.3 7.7 99 0.0 CALM 0 0 0 0 1015.4 1015.2 3.2
19/06:00am 7.4 6.8 7.3 99 0.0 CALM 0 0 0 0 1015.2 1015.0 3.2
19/05:30am 7.3 6.7 7.2 99 0.0 CALM 0 6 0 3 1015.0 1014.8 3.2
19/05:00am 7.1 6.4 7.0 99 0.0 CALM 0 0 0 0 1014.6 1014.4 3.2
19/04:30am 7.1 6.4 7.0 99 0.0 CALM 0 6 0 3 1014.1 1013.9 3.2
19/04:00am 7.8 7.3 7.7 99 0.0 CALM 0 0 0 0 1013.7 1013.6 3.2
19/03:30am 7.4 6.8 7.3 99 0.0 CALM 0 0 0 0 1013.6 1013.5 3.2
19/03:00am 7.8 7.3 7.7 99 0.0 CALM 0 0 0 0 1013.6 1013.5 3.2
19/02:30am 7.0 6.2 6.7 98 0.1 CALM 0 0 0 0 1013.5 1013.4 3.2
19/02:00am 7.9 7.3 7.6 98 0.1 CALM 0 0 0 0 1013.5 1013.4 3.2
19/01:30am 7.8 7.2 7.4 97 0.2 CALM 0 0 0 0 1013.5 1013.4 3.2
19/01:00am 9.6 9.0 9.1 97 0.2 SSW 2 7 1 4 1013.5 1013.4 3.0
19/12:30am 10.1 10.0 9.5 96 0.3 CALM 0 0 0 0 1013.4 1013.3 3.0
19/12:00am 12.0 11.8 11.7 98 0.2 SW 4 9 2 5 1013.5 1013.4 3.0
 
Date/Time
EDT
Temp
°C
App
Temp
°C
Dew
Point
Rel
Hum
%
Delta-T
°C
Wind Press
QNH
hPa
Press
MSL
hPa
Rain
since 9 am
mm
Dir
 
Spd
km/h
Gust
km/h
Spd
kts
Gust
kts
18/11:30pm 12.2 12.4 11.9 98 0.2 N 2 6 1 3 1013.2 1013.1 3.0
18/11:00pm 12.2 12.8 11.9 98 0.2 CALM 0 6 0 3 1013.2 1013.1 3.0
18/10:30pm 11.9 12.3 11.3 96 0.3 CALM 0 0 0 0 1012.9 1012.8 2.8
18/10:00pm 12.4 12.9 11.6 95 0.4 CALM 0 0 0 0 1012.8 1012.7 2.8
18/09:30pm 13.1 13.7 11.8 92 0.7 CALM 0 0 0 0 1012.5 1012.4 2.8
18/09:00pm 13.5 13.8 12.2 92 0.7 ESE 2 7 1 4 1012.1 1012.0 2.8
18/08:30pm 13.9 12.8 11.9 88 1.1 E 9 17 5 9 1011.9 1011.8 2.8
18/08:00pm 14.6 14.2 12.3 86 1.3 NNE 6 7 3 4 1011.4 1011.3 2.2
18/07:30pm 14.4 13.8 11.7 84 1.5 NNW 6 7 3 4 1011.2 1011.1 2.2
18/07:00pm 14.3 13.9 12.3 88 1.1 NNW 6 9 3 5 1010.7 1010.6 2.2
18/06:30pm 14.3 13.4 12.5 89 1.0 N 9 13 5 7 1010.1 1010.0 2.2
18/06:00pm 14.4 13.3 13.1 92 0.7 W 11 19 6 10 1009.9 1009.8 2.2
18/05:30pm 13.5 9.3 12.4 93 0.6 WSW 26 41 14 22 1009.7 1009.5 1.2
18/05:00pm 14.6 9.2 12.3 86 1.3 WSW 32 52 17 28 1008.8 1008.6 0.2
18/04:46pm 14.8 8.6 12.7 87 1.2 WSW 37 56 20 30 1008.1 1007.9 0.2
18/04:30pm 15.7 8.8 11.5 76 2.3 WSW 39 57 21 31 1008.0 1007.8 0.0
18/04:04pm 19.5 13.3 9.4 52 5.4 WSW 32 63 17 34 1006.4 1006.2 0.0
18/04:02pm 22.2 16.1 6.4 36 8.1 WSW 28 61 15 33 1006.1 1005.9 0.0
18/04:00pm 23.0 17.0 5.4 32 8.9 WSW 26 37 14 20 1005.6 1005.4 0.0
18/03:30pm 23.9 19.7 5.8 31 9.2 W 17 32 9 17 1005.3 1005.1 0.0
18/03:00pm 23.6 18.9 6.0 32 9.0 W 20 33 11 18 1005.2 1005.0 0.0
18/02:30pm 23.9 19.4 7.1 34 8.8 WSW 20 30 11 16 1004.9 1004.7 0.0
18/02:00pm 23.9 20.6 7.9 36 8.5 SW 15 22 8 12 1005.2 1005.0 0.0
18/01:30pm 22.6 19.2 7.6 38 7.8 WSW 15 24 8 13 1005.6 1005.4 0.0
18/01:00pm 22.8 17.4 4.3 30 9.1 W 22 33 12 18 1005.4 1005.2 0.0
18/12:30pm 23.4 17.8 5.3 31 9.1 W 24 37 13 20 1005.3 1005.1 0.0
18/12:00pm 24.6 19.0 5.4 29 9.8 NW 24 39 13 21 1005.2 1005.0 0.0
18/11:39am 24.5 18.1 5.3 29 9.7 NNW 28 46 15 25 1005.2 1005.0 0.0
18/11:30am 24.4 18.8 5.2 29 9.7 NW 24 41 13 22 1005.1 1004.9 0.0
18/11:00am 24.4 19.0 6.2 31 9.4 WNW 24 39 13 21 1005.2 1005.0 0.0
18/10:30am 23.4 19.9 7.1 35 8.5 W 15 22 8 12 1005.3 1005.1 0.0
18/10:00am 21.5 19.3 9.4 46 6.5 WSW 11 17 6 9 1005.7 1005.5 0.0
18/09:30am 20.6 18.0 9.5 49 5.9 WNW 13 24 7 13 1005.7 1005.5 0.0
18/09:00am 19.7 18.3 9.6 52 5.4 N 7 13 4 7 1005.5 1005.3 0.0
18/08:30am 17.1 15.9 9.5 61 4.0 NNE 6 13 3 7 1005.6 1005.4 0.0
18/08:00am 13.0 13.2 10.5 85 1.3 CALM 0 6 0 3 1005.8 1005.6 0.0
18/07:30am 10.4 10.5 10.1 98 0.2 CALM 0 0 0 0 1005.9 1005.7 0.0
18/07:00am 8.5 8.1 8.4 99 0.0 CALM 0 0 0 0 1006.1 1005.9 0.0
18/06:30am 6.1 4.8 5.8 98 0.1 S 2 7 1 4 1006.1 1005.9 0.0
18/06:00am 3.8 2.3 3.2 96 0.2 CALM 0 2 0 1 1006.0 1005.8 0.0
18/05:30am 4.5 2.8 4.1 97 0.2 SE 2 6 1 3 1006.0 1005.8 0.0
18/05:00am 4.7 3.4 4.1 96 0.3 CALM 0 0 0 0 1006.0 1005.8 0.0
18/04:30am 5.5 4.0 4.9 96 0.3 E 2 7 1 4 1005.7 1005.5 0.0
18/04:00am 5.7 4.6 5.0 95 0.3 CALM 0 0 0 0 1005.9 1005.7 0.0
18/03:30am 6.1 5.0 5.2 94 0.4 CALM 0 0 0 0 1005.9 1005.7 0.0
18/03:00am 6.8 5.9 5.9 94 0.4 CALM 0 0 0 0 1006.0 1005.8 0.0
18/02:30am 7.3 6.4 6.2 93 0.5 CALM 0 2 0 1 1006.0 1005.8 0.0
18/02:00am 7.7 6.8 6.2 90 0.7 CALM 0 0 0 0 1006.1 1005.9 0.0
18/01:30am 8.8 8.1 6.9 88 0.9 CALM 0 0 0 0 1006.3 1006.1 0.0
18/01:00am 9.9 9.3 7.5 85 1.2 CALM 0 0 0 0 1006.2 1006.0 0.0
18/12:30am 10.1 8.1 7.0 81 1.5 ESE 7 9 4 5 1006.5 1006.3 0.0
18/12:00am 11.4 10.4 7.3 76 2.0 ENE 2 7 1 4 1006.9 1006.7 0.0
 
Date/Time
EDT
Temp
°C
App
Temp
°C
Dew
Point
Rel
Hum
%
Delta-T
°C
Wind Press
QNH
hPa
Press
MSL
hPa
Rain
since 9 am
mm
Dir
 
Spd
km/h
Gust
km/h
Spd
kts
Gust
kts
17/11:30pm 12.4 9.6 7.1 70 2.6 SE 11 15 6 8 1007.2 1007.0 0.0
17/11:00pm 13.6 10.1 7.2 65 3.1 SE 15 20 8 11 1007.4 1007.2 0.0
17/10:30pm 14.5 10.6 7.1 61 3.6 SSE 17 26 9 14 1007.3 1007.1 0.0
17/10:00pm 14.9 11.0 7.0 59 3.9 SSE 17 24 9 13 1007.7 1007.5 0.0
17/09:30pm 15.3 11.0 7.1 58 4.1 SSE 19 32 10 17 1007.8 1007.6 0.0
17/09:00pm 15.9 11.6 6.9 55 4.5 SSE 19 28 10 15 1007.6 1007.4 0.0
17/08:30pm 16.7 12.8 7.1 53 4.8 SSE 17 26 9 14 1007.6 1007.4 0.0
17/08:00pm 18.2 14.3 7.0 48 5.6 SSE 17 26 9 14 1007.4 1007.2 0.0
17/07:30pm 19.1 14.7 6.6 44 6.3 SSE 19 28 10 15 1007.2 1007.0 0.0
17/07:00pm 20.5 16.9 4.9 36 7.7 SSE 13 20 7 11 1006.9 1006.7 0.0
17/06:30pm 20.9 17.7 5.3 36 7.7 SSE 11 17 6 9 1006.9 1006.7 0.0
17/06:00pm 21.0 16.1 5.0 35 7.9 E 20 32 11 17 1006.9 1006.7 0.0
17/05:30pm 21.1 17.5 5.1 35 7.9 ESE 13 20 7 11 1006.9 1006.7 0.0
17/05:00pm 21.5 17.4 6.2 37 7.8 SE 17 26 9 14 1007.1 1006.9 0.0
17/04:30pm 21.8 18.8 3.9 31 8.7 SW 9 13 5 7 1007.3 1007.1 0.0
17/04:00pm 21.5 18.8 5.4 35 8.0 SSW 9 15 5 8 1007.5 1007.3 0.0
17/03:30pm 20.9 18.2 3.6 32 8.3 SW 7 13 4 7 1007.9 1007.7 0.0
17/03:00pm 20.7 18.2 3.9 33 8.1 SSW 6 15 3 8 1008.2 1008.0 0.0
17/02:30pm 20.1 17.0 3.8 34 7.8 NW 9 17 5 9 1008.3 1008.1 0.0
17/02:00pm 19.7 16.2 3.4 34 7.7 SW 11 17 6 9 1008.7 1008.5 0.0
17/01:30pm 19.9 17.5 5.2 38 7.2 ESE 7 17 4 9 1009.0 1008.8 0.0
17/01:00pm 18.8 14.6 3.8 37 7.1 WSW 15 24 8 13 1009.3 1009.1 0.0
17/12:30pm 18.9 16.3 6.1 43 6.4 SW 9 20 5 11 1009.5 1009.3 0.0
17/12:00pm 18.5 15.0 5.4 42 6.4 SW 13 20 7 11 1009.4 1009.2 0.0
17/11:30am 18.0 14.7 6.5 47 5.7 SSW 13 19 7 10 1009.2 1009.0 0.0
17/11:00am 17.4 14.4 6.0 47 5.6 S 11 26 6 14 1009.3 1009.1 0.0
17/10:30am 16.2 12.8 5.8 50 5.0 SSW 13 22 7 12 1009.5 1009.3 0.0
17/10:00am 15.5 13.0 6.5 55 4.4 WNW 9 20 5 11 1009.4 1009.2 0.0

Other Formats:

Comma delimited format used in spreadsheet applications
http://www.bom.gov.au/fwo/IDV60801/IDV60801.94864.axf

JavaScript Object Notation format (JSON) in row-major order
http://www.bom.gov.au/fwo/IDV60801/IDV60801.94864.json